createdAt,value
2023-01-13T00:09:16.285Z,7.86
2023-01-13T00:24:20.387Z,7.85
2023-01-13T00:39:25.215Z,7.90
2023-01-13T00:54:29.035Z,7.95
2023-01-13T01:09:35.088Z,7.89
2023-01-13T01:24:39.066Z,7.99
2023-01-13T01:39:44.119Z,8.05
2023-01-13T01:54:58.018Z,7.92
2023-01-13T02:10:04.339Z,7.83
2023-01-13T02:25:31.378Z,7.85
2023-01-13T02:40:39.144Z,7.91
2023-01-13T02:55:52.096Z,7.94
2023-01-13T03:11:03.766Z,7.98
2023-01-13T03:26:12.902Z,7.97
2023-01-13T03:41:25.012Z,7.92
2023-01-13T03:56:34.387Z,7.91
2023-01-13T04:11:50.087Z,7.95
2023-01-13T04:26:54.352Z,7.93
2023-01-13T04:41:59.276Z,7.90
2023-01-13T04:57:03.232Z,7.95
2023-01-13T05:12:25.706Z,8.06
2023-01-13T05:27:29.595Z,8.11
2023-01-13T05:42:52.776Z,8.15
2023-01-13T05:57:56.858Z,8.26
2023-01-13T06:13:01.599Z,8.33
2023-01-13T06:28:05.266Z,8.35
2023-01-13T06:43:16.677Z,8.41
2023-01-13T06:58:23.695Z,8.45
2023-01-13T07:13:48.722Z,8.49
2023-01-13T07:28:52.878Z,8.52
2023-01-13T07:43:57.787Z,8.58
2023-01-13T07:59:01.787Z,8.61
2023-01-13T08:14:06.654Z,8.61
2023-01-13T08:29:11.081Z,8.75
2023-01-13T08:44:17.432Z,8.94
2023-01-13T08:59:21.347Z,9.16
2023-01-13T09:14:26.266Z,9.35
2023-01-13T09:29:30.244Z,9.88
2023-01-13T09:44:46.759Z,10.01
2023-01-13T09:59:50.724Z,9.92
2023-01-13T10:14:56.025Z,10.05
2023-01-13T10:29:59.950Z,10.35
2023-01-13T10:45:06.159Z,10.56
2023-01-13T11:00:21.112Z,10.66
2023-01-13T11:15:46.877Z,10.48
2023-01-13T11:30:53.042Z,10.31
2023-01-13T11:45:58.387Z,10.16
2023-01-13T12:01:02.632Z,9.85
2023-01-13T12:16:13.434Z,8.94
2023-01-13T12:31:19.245Z,8.43
2023-01-13T12:46:24.963Z,8.45
2023-01-13T13:01:35.581Z,8.53
2023-01-13T13:16:47.601Z,8.50
2023-01-13T13:31:56.034Z,8.35
2023-01-13T13:47:02.113Z,8.34
2023-01-13T14:02:11.803Z,8.19
2023-01-13T14:17:23.956Z,8.20
2023-01-13T14:32:31.741Z,8.04
2023-01-13T14:47:37.523Z,7.97
2023-01-13T15:02:54.089Z,7.90
2023-01-13T15:17:59.831Z,7.67
2023-01-13T15:33:03.750Z,7.37
2023-01-13T15:48:08.533Z,7.04
2023-01-13T16:03:16.031Z,6.81
2023-01-13T16:18:21.117Z,6.75
2023-01-13T16:33:24.929Z,6.55
2023-01-13T16:48:29.666Z,6.59
2023-01-13T17:03:36.335Z,6.70
2023-01-13T17:18:41.432Z,6.74
2023-01-13T17:33:45.283Z,6.82
2023-01-13T17:48:51.337Z,6.69
2023-01-13T18:03:55.646Z,6.60
2023-01-13T18:19:18.604Z,6.48
2023-01-13T18:34:22.317Z,6.36
2023-01-13T18:49:26.685Z,6.31
2023-01-13T19:04:30.696Z,6.26
2023-01-13T19:19:35.192Z,6.22
2023-01-13T19:34:39.633Z,6.20
2023-01-13T19:49:46.630Z,6.18
2023-01-13T20:04:56.105Z,6.36
2023-01-13T20:20:00.738Z,6.41
2023-01-13T20:35:04.814Z,6.22
2023-01-13T20:50:09.253Z,6.11
2023-01-13T21:05:13.430Z,5.91
2023-01-13T21:20:35.045Z,5.78
2023-01-13T21:35:39.522Z,5.70
2023-01-13T21:50:47.111Z,5.70
2023-01-13T22:05:56.156Z,5.69
2023-01-13T22:21:01.296Z,5.66
2023-01-13T22:36:05.468Z,5.65
2023-01-13T22:51:13.637Z,5.59
2023-01-13T23:06:18.531Z,5.58
2023-01-13T23:21:24.229Z,5.56
2023-01-13T23:36:28.092Z,5.57
2023-01-13T23:51:33.623Z,5.57
